createdAt,value
2019-05-25T00:02:23.973Z,9.50
2019-05-25T00:04:53.920Z,9.50
2019-05-25T00:07:24.825Z,9.50
2019-05-25T00:09:54.913Z,9.60
2019-05-25T00:12:24.695Z,9.70
2019-05-25T00:14:54.637Z,9.60
2019-05-25T00:17:24.582Z,9.60
2019-05-25T00:19:54.649Z,9.60
2019-05-25T00:22:24.668Z,9.50
2019-05-25T00:24:54.601Z,9.50
2019-05-25T00:27:24.795Z,9.50
2019-05-25T00:29:54.735Z,9.50
2019-05-25T00:32:24.865Z,9.40
2019-05-25T00:34:54.882Z,9.40
2019-05-25T00:37:24.529Z,9.50
2019-05-25T00:39:54.439Z,9.50
2019-05-25T00:42:24.582Z,9.50
2019-05-25T00:44:54.469Z,9.50
2019-05-25T00:47:24.541Z,9.50
2019-05-25T00:49:54.425Z,9.50
2019-05-25T00:52:24.359Z,9.40
2019-05-25T00:54:54.037Z,9.40
2019-05-25T00:57:23.834Z,9.40
2019-05-25T00:59:53.697Z,9.40
2019-05-25T01:02:23.493Z,9.40
2019-05-25T01:04:53.917Z,9.40
2019-05-25T01:07:23.825Z,9.40
2019-05-25T01:09:53.690Z,9.50
2019-05-25T01:12:23.557Z,9.50
2019-05-25T01:14:53.565Z,9.50
2019-05-25T01:17:23.389Z,9.50
2019-05-25T01:19:53.187Z,9.50
2019-05-25T01:22:23.200Z,9.50
2019-05-25T01:24:53.141Z,9.50
2019-05-25T01:27:23.130Z,9.50
2019-05-25T01:29:53.084Z,9.50
2019-05-25T01:32:22.882Z,9.50
2019-05-25T01:34:54.485Z,9.50
2019-05-25T01:37:24.316Z,9.50
2019-05-25T01:39:55.643Z,9.50
2019-05-25T01:42:25.491Z,9.50
2019-05-25T01:44:55.564Z,9.50
2019-05-25T01:47:25.645Z,9.50
2019-05-25T01:49:55.650Z,9.50
2019-05-25T01:52:25.637Z,9.50
2019-05-25T01:54:59.997Z,9.60
2019-05-25T01:57:27.111Z,9.60
2019-05-25T01:59:57.154Z,9.60
2019-05-25T02:02:27.182Z,9.60
2019-05-25T02:04:57.259Z,9.50
2019-05-25T02:07:27.201Z,9.60
2019-05-25T02:09:57.014Z,9.50
2019-05-25T02:12:26.921Z,9.50
2019-05-25T02:14:56.894Z,9.50
2019-05-25T02:17:26.890Z,9.50
2019-05-25T02:19:56.858Z,9.50
2019-05-25T02:22:26.678Z,9.50
2019-05-25T02:24:56.586Z,9.50
2019-05-25T02:27:26.623Z,9.50
2019-05-25T02:29:56.502Z,9.50
2019-05-25T02:32:26.378Z,9.50
2019-05-25T02:34:56.205Z,9.50
2019-05-25T02:37:26.117Z,9.50
2019-05-25T02:39:55.978Z,9.50
2019-05-25T02:42:25.864Z,9.40
2019-05-25T02:44:55.909Z,9.40
2019-05-25T02:47:25.821Z,9.40
2019-05-25T02:49:55.594Z,9.40
2019-05-25T02:52:25.504Z,9.40
2019-05-25T02:54:55.347Z,9.40
2019-05-25T02:57:25.425Z,9.40
2019-05-25T02:59:57.185Z,9.40
2019-05-25T03:02:27.129Z,9.40
2019-05-25T03:04:57.136Z,9.40
2019-05-25T03:07:27.412Z,9.40
2019-05-25T03:09:58.406Z,9.40
2019-05-25T03:12:29.130Z,9.40
2019-05-25T03:14:58.955Z,9.40
2019-05-25T03:17:29.063Z,9.40
2019-05-25T03:19:59.217Z,9.30
2019-05-25T03:22:29.182Z,9.30
2019-05-25T03:24:59.261Z,9.20
2019-05-25T03:27:29.274Z,9.20
2019-05-25T03:29:59.479Z,9.20
2019-05-25T03:32:29.262Z,9.10
2019-05-25T03:34:59.567Z,9.10
2019-05-25T03:37:29.596Z,9.10
2019-05-25T03:39:59.515Z,9.00
2019-05-25T03:42:29.474Z,9.00
2019-05-25T03:44:59.442Z,8.80
2019-05-25T03:47:29.376Z,8.80
2019-05-25T03:49:59.314Z,8.80
2019-05-25T03:52:29.405Z,8.80
2019-05-25T03:54:59.289Z,8.90
2019-05-25T03:57:29.245Z,8.80
2019-05-25T03:59:59.221Z,8.80
2019-05-25T04:02:29.151Z,8.90
2019-05-25T04:04:59.184Z,8.90
2019-05-25T04:07:29.009Z,8.90
2019-05-25T04:09:58.878Z,8.90
2019-05-25T04:12:28.837Z,8.90
2019-05-25T04:14:58.797Z,9.00
2019-05-25T04:17:28.950Z,8.90
2019-05-25T04:19:58.882Z,8.90
2019-05-25T04:22:28.665Z,8.90
2019-05-25T04:24:58.666Z,8.90
2019-05-25T04:27:28.534Z,8.90
2019-05-25T04:29:58.496Z,8.90
2019-05-25T04:32:28.331Z,8.90
2019-05-25T04:34:58.166Z,8.90
2019-05-25T04:37:28.245Z,9.00
2019-05-25T04:39:58.070Z,9.00
2019-05-25T04:42:27.898Z,9.00
2019-05-25T04:44:57.894Z,9.00
2019-05-25T04:47:27.714Z,9.10
2019-05-25T04:49:57.581Z,9.20
2019-05-25T04:52:27.417Z,9.20
2019-05-25T04:54:57.435Z,9.20
2019-05-25T04:57:27.585Z,9.30
2019-05-25T04:59:57.460Z,9.30
2019-05-25T05:02:27.413Z,9.30
2019-05-25T05:04:57.305Z,9.30
2019-05-25T05:07:27.204Z,9.30
2019-05-25T05:10:02.679Z,9.40
2019-05-25T05:12:28.725Z,9.40
2019-05-25T05:14:58.574Z,9.50
2019-05-25T05:17:28.517Z,9.50
2019-05-25T05:19:58.513Z,9.50
2019-05-25T05:22:28.321Z,9.50
2019-05-25T05:24:58.241Z,9.50
2019-05-25T05:27:28.290Z,9.50
2019-05-25T05:29:58.149Z,9.60
2019-05-25T05:32:28.164Z,9.70
2019-05-25T05:34:58.118Z,9.60
2019-05-25T05:37:28.217Z,9.60
2019-05-25T05:39:59.367Z,9.70
2019-05-25T05:42:31.213Z,9.70
2019-05-25T05:45:02.785Z,9.70
2019-05-25T05:47:35.781Z,9.60
2019-05-25T05:50:06.980Z,9.70
2019-05-25T05:52:41.290Z,9.90
2019-05-25T05:55:12.068Z,9.90
2019-05-25T05:57:41.881Z,10.00
2019-05-25T06:00:13.820Z,9.90
2019-05-25T06:02:43.671Z,9.90
2019-05-25T06:05:13.549Z,9.90
2019-05-25T06:07:43.483Z,9.90
2019-05-25T06:10:13.491Z,10.00
2019-05-25T06:12:43.401Z,10.00
2019-05-25T06:15:13.757Z,10.00
2019-05-25T06:17:43.891Z,10.10
2019-05-25T06:20:14.347Z,10.20
2019-05-25T06:22:44.406Z,10.10
2019-05-25T06:25:15.978Z,10.00
2019-05-25T06:27:45.850Z,10.20
2019-05-25T06:30:16.078Z,10.10
2019-05-25T06:32:46.062Z,10.30
2019-05-25T06:35:17.333Z,10.40
2019-05-25T06:37:47.257Z,10.40
2019-05-25T06:40:17.377Z,10.40
2019-05-25T06:42:47.145Z,10.80
2019-05-25T06:45:18.254Z,10.90
2019-05-25T06:47:48.274Z,10.80
2019-05-25T06:50:20.251Z,10.80
2019-05-25T06:52:50.186Z,10.80
2019-05-25T06:55:20.116Z,10.90
2019-05-25T06:57:49.766Z,11.00
2019-05-25T07:00:21.531Z,11.00
2019-05-25T07:02:51.264Z,11.30
2019-05-25T07:05:21.130Z,11.20
2019-05-25T07:07:54.385Z,11.10
2019-05-25T07:10:22.468Z,11.00
2019-05-25T07:12:52.055Z,10.80
2019-05-25T07:15:22.193Z,10.80
2019-05-25T07:17:51.921Z,11.00
2019-05-25T07:20:22.121Z,11.10
2019-05-25T07:25:21.526Z,11.10
2019-05-25T07:27:59.720Z,11.30
2019-05-25T07:30:24.123Z,11.10
2019-05-25T07:32:53.841Z,11.10
2019-05-25T07:35:23.525Z,10.90
2019-05-25T07:37:53.194Z,10.90
2019-05-25T07:40:22.928Z,11.00
2019-05-25T07:42:52.639Z,11.10
2019-05-25T07:45:22.285Z,11.30
2019-05-25T07:47:51.957Z,11.30
2019-05-25T07:50:21.929Z,11.20
2019-05-25T07:52:51.651Z,11.30
2019-05-25T07:55:21.501Z,11.20
2019-05-25T07:57:51.506Z,10.90
2019-05-25T08:00:21.662Z,10.70
2019-05-25T08:02:51.329Z,10.80
2019-05-25T08:05:21.001Z,10.80
2019-05-25T08:07:50.659Z,11.00
2019-05-25T08:10:20.537Z,11.10
2019-05-25T08:12:50.220Z,11.30
2019-05-25T08:15:20.017Z,11.60
2019-05-25T08:17:49.685Z,11.90
2019-05-25T08:20:19.493Z,11.80
2019-05-25T08:22:49.166Z,12.00
2019-05-25T08:25:19.537Z,11.90
2019-05-25T08:27:49.237Z,11.60
2019-05-25T08:30:19.422Z,11.50
2019-05-25T08:32:49.270Z,11.70
2019-05-25T08:35:18.965Z,11.80
2019-05-25T08:37:48.641Z,11.80
2019-05-25T08:40:18.394Z,11.90
2019-05-25T08:42:48.066Z,12.20
2019-05-25T08:45:18.259Z,12.30
2019-05-25T08:47:49.822Z,12.50
2019-05-25T08:50:20.629Z,12.50
2019-05-25T08:52:50.428Z,13.00
2019-05-25T08:55:20.211Z,13.60
2019-05-25T08:57:49.941Z,13.90
2019-05-25T09:00:20.334Z,13.60
2019-05-25T09:02:50.031Z,13.10
2019-05-25T09:05:19.840Z,13.30
2019-05-25T09:07:49.504Z,13.30
2019-05-25T09:10:19.437Z,13.30
2019-05-25T09:12:49.112Z,13.60
2019-05-25T09:15:19.349Z,12.90
2019-05-25T09:17:49.033Z,13.50
2019-05-25T09:20:19.074Z,13.70
2019-05-25T09:22:48.874Z,13.50
2019-05-25T09:25:18.682Z,13.70
2019-05-25T09:27:48.342Z,13.60
2019-05-25T09:30:18.122Z,13.60
2019-05-25T09:32:47.857Z,13.70
2019-05-25T09:35:17.682Z,13.60
2019-05-25T09:37:47.553Z,13.60
2019-05-25T09:40:17.651Z,13.40
2019-05-25T09:42:47.416Z,13.50
2019-05-25T09:45:17.543Z,14.00
2019-05-25T09:47:47.273Z,14.10
2019-05-25T09:50:17.889Z,14.20
2019-05-25T09:52:47.505Z,14.00
2019-05-25T09:55:17.489Z,14.10
2019-05-25T09:57:47.233Z,14.50
2019-05-25T10:00:17.726Z,14.20
2019-05-25T10:02:47.515Z,13.80
2019-05-25T10:05:18.598Z,13.80
2019-05-25T10:07:48.241Z,14.00
2019-05-25T10:10:19.649Z,14.10
2019-05-25T10:12:49.350Z,14.70
2019-05-25T10:15:19.058Z,14.40
2019-05-25T10:17:48.738Z,14.50
2019-05-25T10:20:18.828Z,15.10
2019-05-25T10:22:48.470Z,15.00
2019-05-25T10:25:18.533Z,15.30
2019-05-25T10:27:48.218Z,15.40
2019-05-25T10:30:18.262Z,15.40
2019-05-25T10:32:48.519Z,15.60
2019-05-25T10:35:18.538Z,15.40
2019-05-25T10:37:48.212Z,14.90
2019-05-25T10:40:18.290Z,14.40
2019-05-25T10:42:49.919Z,14.10
2019-05-25T10:45:19.773Z,14.20
2019-05-25T10:47:49.546Z,14.50
2019-05-25T10:50:19.324Z,14.60
2019-05-25T10:52:49.050Z,14.80
2019-05-25T10:55:18.815Z,14.70
2019-05-25T10:57:48.561Z,14.90
2019-05-25T11:00:20.058Z,15.00
2019-05-25T11:02:49.704Z,14.80
2019-05-25T11:05:19.680Z,14.50
2019-05-25T11:07:49.350Z,14.30
2019-05-25T11:10:19.226Z,13.90
2019-05-25T11:12:48.893Z,13.90
2019-05-25T11:15:18.998Z,11.50
2019-05-25T11:17:50.031Z,13.70
2019-05-25T11:20:19.789Z,13.70
2019-05-25T11:22:49.485Z,13.50
2019-05-25T11:25:19.279Z,13.40
2019-05-25T11:27:49.010Z,13.30
2019-05-25T11:30:18.813Z,13.40
2019-05-25T11:32:48.525Z,13.40
2019-05-25T11:35:20.075Z,13.40
2019-05-25T11:37:49.866Z,13.80
2019-05-25T11:40:20.966Z,13.90
2019-05-25T11:42:50.671Z,13.50
2019-05-25T11:45:20.665Z,13.20
2019-05-25T11:47:50.360Z,13.10
2019-05-25T11:50:22.533Z,12.90
2019-05-25T11:52:52.456Z,12.70
2019-05-25T11:55:22.615Z,12.80
2019-05-25T11:57:52.726Z,12.80
2019-05-25T12:00:25.334Z,12.90
2019-05-25T12:02:54.435Z,13.20
2019-05-25T12:05:24.130Z,13.10
2019-05-25T12:07:53.979Z,13.00
2019-05-25T12:10:23.740Z,13.00
2019-05-25T12:12:54.493Z,13.20
2019-05-25T12:15:24.177Z,13.60
2019-05-25T12:17:54.088Z,14.20
2019-05-25T12:20:23.837Z,14.60
2019-05-25T12:22:53.706Z,14.70
2019-05-25T12:25:23.470Z,14.80
2019-05-25T12:27:53.286Z,14.90
2019-05-25T12:30:23.246Z,14.80
2019-05-25T12:32:52.969Z,14.70
2019-05-25T12:35:22.655Z,14.80
2019-05-25T12:37:52.316Z,14.70
2019-05-25T12:40:21.988Z,14.70
2019-05-25T12:42:51.654Z,14.50
2019-05-25T12:45:24.973Z,14.30
2019-05-25T12:47:55.304Z,14.10
2019-05-25T12:50:25.151Z,14.30
2019-05-25T12:52:54.861Z,14.30
2019-05-25T12:55:24.557Z,14.30
2019-05-25T12:57:54.285Z,14.30
2019-05-25T13:00:24.169Z,14.20
2019-05-25T13:02:53.816Z,14.10
2019-05-25T13:05:33.528Z,14.30
2019-05-25T13:07:55.594Z,14.50
2019-05-25T13:10:25.414Z,14.70
2019-05-25T13:12:57.579Z,14.70
2019-05-25T13:15:26.701Z,15.10
2019-05-25T13:17:56.443Z,15.00
2019-05-25T13:20:26.642Z,14.70
2019-05-25T13:22:56.808Z,14.40
2019-05-25T13:25:26.917Z,14.20
2019-05-25T13:27:56.834Z,14.30
2019-05-25T13:30:26.552Z,14.20
2019-05-25T13:32:56.262Z,14.20
2019-05-25T13:35:25.911Z,14.20
2019-05-25T13:37:55.626Z,14.60
2019-05-25T13:40:25.590Z,14.60
2019-05-25T13:42:55.755Z,14.70
2019-05-25T13:45:25.652Z,14.90
2019-05-25T13:47:55.802Z,15.10
2019-05-25T13:50:25.764Z,15.20
2019-05-25T13:52:55.603Z,15.40
2019-05-25T13:55:25.376Z,15.30
2019-05-25T13:57:55.381Z,15.00
2019-05-25T14:00:25.190Z,14.90
2019-05-25T14:02:55.270Z,14.80
2019-05-25T14:05:25.242Z,14.70
2019-05-25T14:07:55.186Z,14.80
2019-05-25T14:10:24.873Z,15.00
2019-05-25T14:12:54.585Z,14.80
2019-05-25T14:15:24.338Z,14.60
2019-05-25T14:17:53.978Z,14.70
2019-05-25T14:20:23.703Z,14.70
2019-05-25T14:22:53.381Z,14.60
2019-05-25T14:25:23.225Z,14.60
2019-05-25T14:27:54.833Z,14.50
2019-05-25T14:30:25.277Z,14.00
2019-05-25T14:32:55.337Z,13.80
2019-05-25T14:35:25.125Z,14.00
2019-05-25T14:37:54.821Z,13.80
2019-05-25T14:40:26.409Z,13.40
2019-05-25T14:42:56.328Z,13.50
2019-05-25T14:45:26.271Z,13.60
2019-05-25T14:47:56.289Z,13.60
2019-05-25T14:50:26.373Z,13.70
2019-05-25T14:52:56.337Z,13.80
2019-05-25T14:55:26.189Z,14.30
2019-05-25T14:57:56.075Z,14.90
2019-05-25T15:00:25.998Z,15.70
2019-05-25T15:02:55.911Z,16.50
2019-05-25T15:05:25.930Z,16.90
2019-05-25T15:07:55.894Z,17.30
2019-05-25T15:10:25.985Z,17.00
2019-05-25T15:12:55.877Z,16.60
2019-05-25T15:15:26.126Z,16.40
2019-05-25T15:17:56.117Z,16.00
2019-05-25T15:20:26.167Z,15.10
2019-05-25T15:22:56.173Z,14.90
2019-05-25T15:25:26.061Z,14.50
2019-05-25T15:27:56.093Z,14.50
2019-05-25T15:30:26.293Z,14.60
2019-05-25T15:32:56.345Z,14.60
2019-05-25T15:35:26.329Z,14.50
2019-05-25T15:37:56.278Z,14.60
2019-05-25T15:40:26.151Z,14.50
2019-05-25T15:42:55.981Z,14.60
2019-05-25T15:45:26.017Z,14.80
2019-05-25T15:47:56.012Z,15.20
2019-05-25T15:50:26.121Z,16.00
2019-05-25T15:52:56.872Z,16.60
2019-05-25T15:55:27.753Z,16.40
2019-05-25T15:57:57.841Z,15.90
2019-05-25T16:00:47.005Z,15.40
2019-05-25T16:03:18.025Z,15.00
2019-05-25T16:05:48.434Z,14.60
2019-05-25T16:08:19.438Z,14.30
2019-05-25T16:10:51.149Z,14.30
2019-05-25T16:13:21.183Z,14.60
2019-05-25T16:15:51.098Z,16.20
2019-05-25T16:18:21.001Z,17.70
2019-05-25T16:20:52.034Z,20.20
2019-05-25T16:23:21.942Z,23.40
2019-05-25T16:25:51.825Z,23.40
2019-05-25T16:28:21.649Z,24.00
2019-05-25T16:30:51.593Z,25.30
2019-05-25T16:33:21.730Z,23.90
2019-05-25T16:35:52.225Z,22.60
2019-05-25T16:38:22.239Z,23.50
2019-05-25T16:40:52.194Z,23.60
2019-05-25T16:43:22.064Z,24.80
2019-05-25T16:45:51.986Z,25.00
2019-05-25T16:48:21.921Z,24.50
2019-05-25T16:50:54.121Z,22.50
2019-05-25T16:53:24.193Z,20.40
2019-05-25T16:55:54.916Z,19.80
2019-05-25T16:58:24.902Z,19.90
2019-05-25T17:00:54.967Z,19.90
2019-05-25T17:03:28.697Z,20.90
2019-05-25T17:05:56.459Z,20.20
2019-05-25T17:08:26.397Z,20.00
2019-05-25T17:10:56.345Z,20.10
2019-05-25T17:13:26.045Z,20.70
2019-05-25T17:15:55.685Z,20.20
2019-05-25T17:18:28.386Z,20.70
2019-05-25T17:20:58.133Z,20.30
2019-05-25T17:23:30.134Z,20.70
2019-05-25T17:25:59.921Z,20.20
2019-05-25T17:28:29.694Z,20.50
2019-05-25T17:30:59.495Z,20.30
2019-05-25T17:33:44.567Z,19.80
2019-05-25T17:36:00.830Z,20.20
2019-05-25T17:38:30.673Z,19.50
2019-05-25T17:41:00.650Z,19.40
2019-05-25T17:43:30.868Z,19.10
2019-05-25T17:46:00.882Z,18.30
2019-05-25T17:48:30.523Z,18.20
2019-05-25T17:51:00.272Z,18.10
2019-05-25T17:53:29.958Z,17.70
2019-05-25T17:55:59.593Z,17.70
2019-05-25T17:58:29.293Z,17.90
2019-05-25T18:00:59.040Z,17.60
2019-05-25T18:03:28.748Z,17.10
2019-05-25T18:05:58.624Z,16.70
2019-05-25T18:08:28.570Z,16.30
2019-05-25T18:10:58.663Z,15.80
2019-05-25T18:13:29.211Z,15.40
2019-05-25T18:15:59.305Z,15.20
2019-05-25T18:18:29.005Z,15.00
2019-05-25T18:20:59.002Z,14.80
2019-05-25T18:23:28.711Z,14.70
2019-05-25T18:25:58.371Z,14.50
2019-05-25T18:28:28.256Z,14.30
2019-05-25T18:30:58.213Z,14.10
2019-05-25T18:33:28.212Z,13.90
2019-05-25T18:35:57.999Z,13.80
2019-05-25T18:38:28.045Z,13.60
2019-05-25T18:40:58.264Z,13.50
2019-05-25T18:43:28.037Z,13.40
2019-05-25T18:45:57.756Z,13.30
2019-05-25T18:48:27.425Z,13.20
2019-05-25T18:50:57.418Z,13.20
2019-05-25T18:53:27.113Z,13.10
2019-05-25T18:55:56.782Z,13.00
2019-05-25T18:58:26.586Z,12.90
2019-05-25T19:00:56.665Z,12.90
2019-05-25T19:03:26.537Z,12.80
2019-05-25T19:05:56.448Z,12.70
2019-05-25T19:08:26.494Z,12.70
2019-05-25T19:10:56.489Z,12.60
2019-05-25T19:13:26.163Z,12.60
2019-05-25T19:15:55.891Z,12.60
2019-05-25T19:18:25.915Z,12.50
2019-05-25T19:20:55.833Z,12.50
2019-05-25T19:23:25.508Z,12.50
2019-05-25T19:25:55.245Z,12.40
2019-05-25T19:28:25.364Z,12.40
2019-05-25T19:30:56.337Z,12.50
2019-05-25T19:33:26.352Z,12.50
2019-05-25T19:35:56.475Z,12.40
2019-05-25T19:38:26.210Z,12.60
2019-05-25T19:40:55.877Z,12.60
2019-05-25T19:43:25.564Z,12.60
2019-05-25T19:45:55.273Z,12.60
2019-05-25T19:48:25.090Z,12.70
2019-05-25T19:50:57.822Z,12.70
2019-05-25T19:53:27.530Z,12.70
2019-05-25T19:55:57.294Z,12.70
2019-05-25T19:58:26.965Z,12.70
2019-05-25T20:00:58.066Z,12.80
2019-05-25T20:03:28.293Z,12.70
2019-05-25T20:05:57.975Z,12.70
2019-05-25T20:08:27.629Z,12.70
2019-05-25T20:10:57.408Z,12.70
2019-05-25T20:13:27.081Z,12.80
2019-05-25T20:15:56.803Z,12.80
2019-05-25T20:18:26.516Z,12.80
2019-05-25T20:20:56.550Z,12.80
2019-05-25T20:23:26.536Z,12.80
2019-05-25T20:25:56.361Z,12.80
2019-05-25T20:28:26.002Z,12.80
2019-05-25T20:30:55.702Z,12.80
2019-05-25T20:33:27.916Z,12.80
2019-05-25T20:35:56.863Z,12.80
2019-05-25T20:38:26.638Z,12.80
2019-05-25T20:40:57.436Z,12.90
2019-05-25T20:43:27.268Z,12.90
2019-05-25T20:45:56.910Z,12.90
2019-05-25T20:48:26.636Z,12.90
2019-05-25T20:50:56.374Z,12.90
2019-05-25T20:53:26.052Z,13.00
2019-05-25T20:55:55.928Z,12.90
2019-05-25T20:58:25.870Z,12.90
2019-05-25T21:00:56.896Z,12.90
2019-05-25T21:03:26.613Z,12.90
2019-05-25T21:05:56.253Z,12.90
2019-05-25T21:08:25.985Z,12.90
2019-05-25T21:10:55.696Z,12.80
2019-05-25T21:13:25.342Z,12.70
2019-05-25T21:15:55.033Z,12.70
2019-05-25T21:18:25.073Z,12.70
2019-05-25T21:20:54.870Z,12.60
2019-05-25T21:23:24.541Z,12.60
2019-05-25T21:25:54.214Z,12.70
2019-05-25T21:28:23.869Z,12.60
2019-05-25T21:30:53.573Z,12.60
2019-05-25T21:33:23.258Z,12.60
2019-05-25T21:36:07.081Z,12.60
2019-05-25T21:38:24.369Z,12.50
2019-05-25T21:40:54.162Z,12.50
2019-05-25T21:43:23.981Z,12.50
2019-05-25T21:45:53.935Z,12.40
2019-05-25T21:48:23.825Z,12.30
2019-05-25T21:50:53.743Z,12.30
2019-05-25T21:53:23.414Z,12.20
2019-05-25T21:55:53.548Z,12.20
2019-05-25T21:58:23.220Z,12.10
2019-05-25T22:00:53.045Z,12.10
2019-05-25T22:03:22.805Z,12.10
2019-05-25T22:05:52.478Z,12.10
2019-05-25T22:08:22.197Z,12.10
2019-05-25T22:10:51.894Z,12.00
2019-05-25T22:13:28.423Z,12.00
2019-05-25T22:15:56.093Z,12.00
2019-05-25T22:18:25.946Z,12.10
2019-05-25T22:20:55.623Z,11.90
2019-05-25T22:23:25.314Z,11.80
2019-05-25T22:25:55.071Z,11.60
2019-05-25T22:28:24.873Z,11.50
2019-05-25T22:30:54.782Z,11.40
2019-05-25T22:33:26.629Z,11.30
2019-05-25T22:35:56.809Z,11.20
2019-05-25T22:38:26.693Z,11.10
2019-05-25T22:40:57.728Z,11.10
2019-05-25T22:43:27.730Z,11.10
2019-05-25T22:45:57.431Z,11.00
2019-05-25T22:48:27.210Z,11.00
2019-05-25T22:50:57.218Z,11.10
2019-05-25T22:53:27.001Z,11.20
2019-05-25T22:55:56.774Z,11.20
2019-05-25T22:58:26.797Z,11.20
2019-05-25T23:00:56.649Z,11.20
2019-05-25T23:03:26.718Z,11.30
2019-05-25T23:05:56.558Z,11.40
2019-05-25T23:08:26.497Z,11.50
2019-05-25T23:10:56.513Z,11.60
2019-05-25T23:13:26.328Z,11.70
2019-05-25T23:15:56.540Z,11.70
2019-05-25T23:18:26.233Z,11.70
2019-05-25T23:20:55.949Z,11.70
2019-05-25T23:23:25.622Z,11.80
2019-05-25T23:25:55.326Z,11.80
2019-05-25T23:28:24.998Z,11.70
2019-05-25T23:30:54.675Z,11.70
2019-05-25T23:33:24.621Z,11.50
2019-05-25T23:35:54.638Z,11.50
2019-05-25T23:38:24.321Z,11.40
2019-05-25T23:40:54.001Z,11.30
2019-05-25T23:43:24.115Z,11.20
2019-05-25T23:45:54.097Z,11.20
2019-05-25T23:48:24.064Z,11.10
2019-05-25T23:50:54.813Z,11.10
2019-05-25T23:53:24.725Z,11.00
2019-05-25T23:55:54.535Z,11.00
2019-05-25T23:58:24.225Z,11.00
